Time;durP1;ratioP1;P1;durP2;ratioP2;P2;SDS_P1;SDS_P2;PMS_P1;PMS_P2;Temp;Humidity;BMP_temperature;BMP_pressure;BME280_temperature;BME280_humidity;BME280_pressure;Samples;Min_cycle;Max_cycle;Signal;HPM_P1;HPM_P2
2021/04/25 00:01:53;;;;;;;3.93;1.50;;;3.60;99.90;;;;;;5043620;28;20267;-53
2021/04/25 00:04:19;;;;;;;3.97;1.63;;;3.60;99.90;;;;;;5044317;28;20210;-57
2021/04/25 00:06:46;;;;;;;5.70;1.50;;;3.60;99.90;;;;;;5036616;28;20309;-56
2021/04/25 00:09:14;;;;;;;3.67;2.40;;;3.60;99.90;;;;;;5056117;28;20229;-54
2021/04/25 00:11:40;;;;;;;4.47;1.53;;;3.50;99.90;;;;;;5060423;28;20422;-53
2021/04/25 00:14:07;;;;;;;7.63;2.00;;;3.50;99.90;;;;;;5053170;28;20619;-51
2021/04/25 00:16:35;;;;;;;5.30;1.60;;;3.50;99.90;;;;;;5057757;28;20209;-57
2021/04/25 00:19:01;;;;;;;5.30;1.60;;;3.50;99.90;;;;;;5064576;28;20190;-56
2021/04/25 00:21:28;;;;;;;6.50;1.60;;;3.50;99.90;;;;;;5048824;28;20271;-57
2021/04/25 00:23:55;;;;;;;3.77;1.50;;;3.40;99.90;;;;;;5036419;28;20803;-56
2021/04/25 00:26:21;;;;;;;4.00;1.73;;;3.40;99.90;;;;;;5042426;28;20557;-54
2021/04/25 00:28:47;;;;;;;7.03;1.80;;;3.40;99.90;;;;;;5040781;28;20304;-51
2021/04/25 00:31:14;;;;;;;9.13;1.70;;;3.30;99.90;;;;;;5044875;28;20218;-55
2021/04/25 00:33:41;;;;;;;7.30;1.80;;;3.30;99.90;;;;;;5040562;28;20764;-52
2021/04/25 00:36:07;;;;;;;7.60;1.70;;;3.30;99.90;;;;;;5043834;28;20198;-54
2021/04/25 00:38:33;;;;;;;4.23;1.40;;;3.30;99.90;;;;;;5037819;28;20683;-56
2021/04/25 00:40:59;;;;;;;4.70;1.53;;;3.20;99.90;;;;;;5048291;28;20720;-53
2021/04/25 00:43:25;;;;;;;4.80;1.47;;;3.30;99.90;;;;;;5046827;28;20308;-56
2021/04/25 00:45:52;;;;;;;3.37;1.07;;;3.20;99.90;;;;;;5042779;28;20193;-54
2021/04/25 00:48:18;;;;;;;4.50;1.60;;;3.20;99.90;;;;;;5043882;28;20210;-57
2021/04/25 00:50:45;;;;;;;7.53;1.93;;;3.20;99.90;;;;;;5040698;28;20300;-52
2021/04/25 00:53:12;;;;;;;5.50;1.57;;;3.20;99.90;;;;;;5038825;28;20697;-55
2021/04/25 00:55:39;;;;;;;7.10;1.70;;;3.20;99.90;;;;;;5051208;28;20274;-56
2021/04/25 00:58:06;;;;;;;3.87;1.40;;;3.10;99.90;;;;;;5064018;28;20197;-56
2021/04/25 01:00:33;;;;;;;3.00;1.00;;;3.10;99.90;;;;;;5060197;28;20568;-54
2021/04/25 01:03:00;;;;;;;3.77;1.37;;;3.10;99.90;;;;;;5063696;28;20199;-55
2021/04/25 01:05:26;;;;;;;5.80;1.57;;;3.00;99.90;;;;;;5061654;28;20194;-56
2021/04/25 01:07:54;;;;;;;5.40;1.63;;;3.00;99.90;;;;;;5047948;28;20579;-52
2021/04/25 01:10:21;;;;;;;1.93;1.37;;;3.00;99.90;;;;;;5053928;28;20213;-56
2021/04/25 01:12:48;;;;;;;5.40;1.30;;;3.00;99.90;;;;;;5050811;28;20993;-50
2021/04/25 01:15:18;;;;;;;5.03;2.00;;;3.00;99.90;;;;;;5043520;28;20198;-53
2021/04/25 01:17:46;;;;;;;4.27;1.57;;;2.90;99.90;;;;;;5036009;28;20412;-56
2021/04/25 01:20:14;;;;;;;7.57;1.80;;;2.90;99.90;;;;;;5062406;28;20197;-56
2021/04/25 01:22:42;;;;;;;5.23;1.60;;;2.90;99.90;;;;;;5043693;28;20733;-52
2021/04/25 01:25:11;;;;;;;3.13;1.43;;;2.90;99.90;;;;;;5054878;28;20193;-53
2021/04/25 01:27:37;;;;;;;2.70;1.53;;;2.90;99.90;;;;;;5041933;28;20972;-54
2021/04/25 01:30:05;;;;;;;3.67;1.43;;;2.80;99.90;;;;;;5043507;28;20188;-54
2021/04/25 01:32:31;;;;;;;3.33;1.37;;;2.80;99.90;;;;;;5039871;28;20219;-53
2021/04/25 01:34:57;;;;;;;3.63;1.70;;;2.80;99.90;;;;;;5042619;28;20189;-54
2021/04/25 01:37:24;;;;;;;5.17;1.20;;;2.80;99.90;;;;;;5041596;28;20199;-56
2021/04/25 01:39:51;;;;;;;2.83;1.70;;;2.70;99.90;;;;;;5013187;28;20431;-52
2021/04/25 01:42:17;;;;;;;1.93;1.20;;;2.70;99.90;;;;;;5054481;28;20271;-57
2021/04/25 01:44:44;;;;;;;2.53;1.47;;;2.70;99.90;;;;;;5044459;28;20193;-52
2021/04/25 01:47:10;;;;;;;1.70;1.47;;;2.70;99.90;;;;;;5038814;28;20258;-57
2021/04/25 01:49:36;;;;;;;3.63;1.30;;;2.60;99.90;;;;;;5050796;28;20207;-52
2021/04/25 01:52:03;;;;;;;3.53;1.50;;;2.60;99.90;;;;;;5060996;28;20222;-57
2021/04/25 01:54:29;;;;;;;5.03;1.20;;;2.60;99.90;;;;;;5047395;28;20225;-54
2021/04/25 01:56:56;;;;;;;3.83;1.73;;;2.50;99.90;;;;;;5051219;28;20278;-54
2021/04/25 01:59:22;;;;;;;7.43;1.67;;;2.50;99.90;;;;;;5039285;28;20447;-54
2021/04/25 02:01:49;;;;;;;9.67;1.67;;;2.50;99.90;;;;;;5043251;28;20275;-55
2021/04/25 02:04:16;;;;;;;3.13;1.57;;;2.50;99.90;;;;;;5037838;28;20472;-55
2021/04/25 02:06:43;;;;;;;5.40;2.77;;;2.50;99.90;;;;;;5042934;28;20203;-54
2021/04/25 02:09:10;;;;;;;5.43;1.33;;;2.40;99.90;;;;;;5030233;28;20201;-56
2021/04/25 02:11:36;;;;;;;4.77;1.70;;;2.40;99.90;;;;;;5051615;28;20229;-55
2021/04/25 02:14:04;;;;;;;3.30;1.50;;;2.40;99.90;;;;;;5047615;28;20199;-56
2021/04/25 02:16:31;;;;;;;5.70;1.67;;;2.40;99.90;;;;;;5056992;28;20260;-52
2021/04/25 02:18:57;;;;;;;8.73;1.70;;;2.40;99.90;;;;;;5061898;28;20200;-57
2021/04/25 02:21:23;;;;;;;5.00;1.33;;;2.40;99.90;;;;;;5059839;28;20227;-52
2021/04/25 02:23:49;;;;;;;8.47;1.60;;;2.40;99.90;;;;;;5062845;28;20637;-54
2021/04/25 02:26:15;;;;;;;7.83;2.13;;;2.30;99.90;;;;;;5038360;28;20290;-52
2021/04/25 02:28:41;;;;;;;4.47;1.57;;;2.30;99.90;;;;;;5050208;28;20221;-55
2021/04/25 02:31:08;;;;;;;5.27;1.93;;;2.30;99.90;;;;;;5039348;28;20212;-54
2021/04/25 02:33:36;;;;;;;3.93;1.77;;;2.30;99.90;;;;;;5041861;28;20220;-52
2021/04/25 02:36:02;;;;;;;4.60;1.60;;;2.30;99.90;;;;;;5040211;28;20673;-54
2021/04/25 02:38:28;;;;;;;4.83;1.67;;;2.20;99.90;;;;;;5047868;28;20209;-56
2021/04/25 02:40:54;;;;;;;4.13;1.50;;;2.20;99.90;;;;;;5059984;28;20231;-55
2021/04/25 02:43:20;;;;;;;3.87;1.60;;;2.20;99.90;;;;;;5034244;28;20201;-57
2021/04/25 02:45:46;;;;;;;6.37;1.70;;;2.20;99.90;;;;;;5053933;28;20211;-56
2021/04/25 02:48:13;;;;;;;7.07;1.63;;;2.10;99.90;;;;;;5058449;28;20187;-54
2021/04/25 02:50:42;;;;;;;5.20;2.10;;;2.20;99.90;;;;;;5062182;28;20603;-52
2021/04/25 02:53:10;;;;;;;6.23;1.93;;;2.10;99.90;;;;;;5059373;28;20233;-57
2021/04/25 02:55:36;;;;;;;6.97;2.03;;;2.10;99.90;;;;;;5061520;28;20193;-55
2021/04/25 02:58:03;;;;;;;4.10;1.73;;;2.10;99.90;;;;;;5038269;28;20717;-54
2021/04/25 03:00:30;;;;;;;4.17;1.80;;;2.00;99.90;;;;;;5043701;28;20689;-54
2021/04/25 03:02:57;;;;;;;8.13;1.87;;;2.00;99.90;;;;;;5041829;28;20253;-56
2021/04/25 03:05:25;;;;;;;5.40;2.03;;;2.00;99.90;;;;;;5039249;28;20199;-52
2021/04/25 03:07:52;;;;;;;8.97;1.90;;;2.00;99.90;;;;;;5043512;28;20197;-56
2021/04/25 03:10:19;;;;;;;7.10;2.00;;;2.00;99.90;;;;;;5049262;28;20836;-53
2021/04/25 03:12:46;;;;;;;2.90;1.83;;;2.00;99.90;;;;;;5046813;28;20587;-56
2021/04/25 03:15:14;;;;;;;2.03;1.50;;;2.00;99.90;;;;;;5046207;28;20249;-52
2021/04/25 03:17:40;;;;;;;3.93;1.73;;;2.10;99.90;;;;;;5042014;28;20191;-53
2021/04/25 03:20:08;;;;;;;3.50;1.80;;;2.10;99.90;;;;;;5021278;28;20200;-56
2021/04/25 03:22:36;;;;;;;6.57;2.00;;;2.10;99.90;;;;;;5041592;28;20208;-53
2021/04/25 03:25:03;;;;;;;2.93;2.40;;;2.10;99.90;;;;;;5030548;28;20763;-55
2021/04/25 03:27:29;;;;;;;6.43;1.90;;;2.10;99.90;;;;;;5039923;28;20195;-55
2021/04/25 03:29:55;;;;;;;6.70;1.60;;;2.00;99.90;;;;;;5033735;28;20328;-55
2021/04/25 03:32:21;;;;;;;1.83;1.43;;;2.00;99.90;;;;;;5055722;28;20592;-56
2021/04/25 03:34:48;;;;;;;6.73;1.87;;;2.00;99.90;;;;;;5059271;28;20209;-57
2021/04/25 03:37:14;;;;;;;4.70;1.80;;;2.00;99.90;;;;;;5056616;28;20309;-54
2021/04/25 03:39:41;;;;;;;6.07;1.87;;;2.00;99.90;;;;;;5049836;28;20284;-54
2021/04/25 03:42:08;;;;;;;4.70;1.77;;;2.00;99.90;;;;;;5059174;28;20265;-53
2021/04/25 03:44:34;;;;;;;4.10;1.80;;;2.00;99.90;;;;;;5046516;28;20218;-54
2021/04/25 03:47:00;;;;;;;5.70;1.90;;;2.00;99.90;;;;;;5053279;28;20457;-52
2021/04/25 03:49:26;;;;;;;3.93;1.93;;;2.00;99.90;;;;;;5065209;28;20201;-53
2021/04/25 03:51:54;;;;;;;5.47;1.90;;;2.00;99.90;;;;;;5058058;28;20228;-56
2021/04/25 03:54:21;;;;;;;5.93;1.87;;;1.90;99.90;;;;;;5057126;28;20734;-57
2021/04/25 03:56:48;;;;;;;4.23;1.90;;;1.90;99.90;;;;;;5061999;28;20546;-57
2021/04/25 03:59:14;;;;;;;6.53;2.23;;;1.90;99.90;;;;;;5039471;28;20220;-54
2021/04/25 04:01:40;;;;;;;3.60;1.60;;;1.90;99.90;;;;;;5047106;28;20240;-52
2021/04/25 04:04:06;;;;;;;5.03;1.57;;;1.90;99.90;;;;;;5057940;28;20200;-56
2021/04/25 04:06:32;;;;;;;3.80;1.53;;;1.90;99.90;;;;;;5045414;28;20674;-56
2021/04/25 04:09:00;;;;;;;7.67;2.03;;;1.90;99.90;;;;;;5032344;28;20477;-54
2021/04/25 04:11:26;;;;;;;4.83;1.87;;;1.90;99.90;;;;;;5045023;28;20215;-52
2021/04/25 04:13:53;;;;;;;4.97;1.53;;;1.90;99.90;;;;;;5041366;28;20226;-56
2021/04/25 04:16:19;;;;;;;2.80;1.57;;;1.90;99.90;;;;;;5039510;28;20203;-53
2021/04/25 04:18:45;;;;;;;6.80;1.77;;;1.90;99.90;;;;;;5054288;28;20217;-57
2021/04/25 04:21:12;;;;;;;9.87;1.70;;;1.80;99.90;;;;;;5053629;28;20223;-51
2021/04/25 04:23:38;;;;;;;4.60;1.70;;;1.80;99.90;;;;;;5044310;28;20380;-55
2021/04/25 04:26:04;;;;;;;3.47;1.80;;;1.80;99.90;;;;;;5041439;28;20415;-53
2021/04/25 04:28:31;;;;;;;7.83;2.10;;;1.80;99.90;;;;;;5045229;28;20206;-52
2021/04/25 04:30:58;;;;;;;8.73;2.03;;;1.80;99.90;;;;;;5028842;28;20631;-52
2021/04/25 04:33:24;;;;;;;5.43;1.93;;;1.80;99.90;;;;;;5053176;28;20207;-55
2021/04/25 04:35:50;;;;;;;5.00;1.90;;;1.80;99.90;;;;;;5051578;28;20244;-56
2021/04/25 04:38:16;;;;;;;7.53;1.90;;;1.90;99.90;;;;;;5044943;28;20191;-52
2021/04/25 04:40:42;;;;;;;8.20;2.57;;;1.80;99.90;;;;;;5045234;28;20218;-58
2021/04/25 04:43:08;;;;;;;7.17;2.03;;;1.90;99.90;;;;;;5045921;28;20187;-55
2021/04/25 04:45:34;;;;;;;4.90;2.20;;;1.90;99.90;;;;;;5056230;28;20199;-54
2021/04/25 04:48:01;;;;;;;4.87;2.00;;;1.90;99.90;;;;;;5042455;28;20219;-55
2021/04/25 04:50:28;;;;;;;4.40;1.97;;;1.90;99.90;;;;;;5052875;28;20259;-55
2021/04/25 04:52:54;;;;;;;5.07;1.87;;;1.90;99.90;;;;;;5035788;28;20273;-56
2021/04/25 04:55:20;;;;;;;5.33;1.87;;;1.90;99.90;;;;;;5043039;28;20199;-53
2021/04/25 04:57:46;;;;;;;4.53;1.80;;;1.90;99.90;;;;;;5041839;28;20197;-55
2021/04/25 05:00:13;;;;;;;6.63;1.67;;;1.90;99.90;;;;;;5042286;28;20195;-51
2021/04/25 05:02:40;;;;;;;7.70;2.00;;;1.90;99.90;;;;;;5028536;28;20719;-52
2021/04/25 05:05:08;;;;;;;6.83;2.07;;;2.00;99.90;;;;;;5050267;28;20236;-55
2021/04/25 05:07:34;;;;;;;3.93;2.30;;;2.00;99.90;;;;;;5034459;28;20215;-50
2021/04/25 05:10:00;;;;;;;6.13;2.20;;;2.10;99.90;;;;;;5033570;28;20399;-49
2021/04/25 05:12:26;;;;;;;4.33;2.20;;;2.20;99.90;;;;;;5034926;28;20224;-53
2021/04/25 05:14:52;;;;;;;7.00;1.80;;;2.20;99.90;;;;;;5041317;28;20758;-54
2021/04/25 05:17:18;;;;;;;3.77;1.90;;;2.30;99.90;;;;;;5028917;28;20201;-55
2021/04/25 05:19:44;;;;;;;4.63;1.87;;;2.40;99.90;;;;;;5035875;28;20725;-56
2021/04/25 05:22:11;;;;;;;4.73;2.13;;;2.40;99.90;;;;;;5046336;28;20341;-52
2021/04/25 05:24:37;;;;;;;4.67;1.60;;;2.40;99.90;;;;;;5034686;28;20455;-53
2021/04/25 05:27:04;;;;;;;4.27;1.90;;;2.40;99.90;;;;;;5043256;28;20193;-55
2021/04/25 05:29:30;;;;;;;5.07;1.80;;;2.50;99.90;;;;;;5040038;28;20849;-56
2021/04/25 05:31:57;;;;;;;3.20;2.30;;;2.50;99.90;;;;;;5043051;28;20727;-54
2021/04/25 05:34:23;;;;;;;8.03;2.27;;;2.60;99.90;;;;;;5037073;28;20207;-54
2021/04/25 05:36:49;;;;;;;4.33;1.70;;;2.60;99.90;;;;;;5050460;28;20207;-57
2021/04/25 05:39:16;;;;;;;4.80;1.60;;;2.70;99.90;;;;;;5033807;28;20192;-52
2021/04/25 05:41:42;;;;;;;3.73;2.40;;;2.80;99.90;;;;;;5057219;28;20214;-52
2021/04/25 05:44:08;;;;;;;4.03;2.33;;;2.80;99.90;;;;;;5054394;28;20202;-53
2021/04/25 05:46:35;;;;;;;5.73;2.10;;;2.80;99.90;;;;;;5050795;28;20208;-56
2021/04/25 05:49:02;;;;;;;5.47;1.90;;;2.80;99.90;;;;;;5045298;28;20565;-53
2021/04/25 05:51:28;;;;;;;8.47;2.20;;;2.90;99.90;;;;;;5048770;28;20220;-55
2021/04/25 05:53:54;;;;;;;4.67;1.80;;;2.90;99.90;;;;;;5052078;28;20238;-54
2021/04/25 05:56:21;;;;;;;1.73;1.63;;;3.00;99.90;;;;;;5037263;28;20678;-56
2021/04/25 05:58:48;;;;;;;3.87;1.70;;;3.10;99.90;;;;;;5040555;28;20200;-54
2021/04/25 06:01:14;;;;;;;4.30;2.00;;;3.20;99.90;;;;;;5043078;28;20209;-53
2021/04/25 06:03:41;;;;;;;6.30;2.13;;;3.20;99.90;;;;;;5038717;28;20783;-50
2021/04/25 06:06:07;;;;;;;6.30;1.90;;;3.30;99.90;;;;;;5039737;28;20572;-50
2021/04/25 06:08:33;;;;;;;4.10;1.60;;;3.30;99.90;;;;;;5047087;28;20205;-54
2021/04/25 06:10:59;;;;;;;3.13;1.97;;;3.40;99.90;;;;;;5038892;28;20220;-53
2021/04/25 06:13:26;;;;;;;3.77;2.00;;;3.50;99.90;;;;;;5046911;28;20224;-53
2021/04/25 06:15:53;;;;;;;6.50;1.80;;;3.60;99.90;;;;;;5053344;28;20828;-49
2021/04/25 06:18:19;;;;;;;5.73;2.47;;;3.60;99.90;;;;;;5061948;28;20647;-53
2021/04/25 06:20:45;;;;;;;4.00;2.03;;;3.70;99.90;;;;;;5042563;28;20847;-48
2021/04/25 06:23:13;;;;;;;5.77;2.23;;;3.80;99.90;;;;;;5051096;28;20184;-48
2021/04/25 06:25:39;;;;;;;3.10;1.93;;;3.90;99.90;;;;;;5034187;28;20214;-46
2021/04/25 06:28:06;;;;;;;7.00;2.37;;;4.10;99.90;;;;;;5037704;28;20213;-49
2021/04/25 06:30:33;;;;;;;5.10;2.10;;;4.30;99.90;;;;;;5038642;28;20194;-50
2021/04/25 06:32:59;;;;;;;6.00;3.27;;;4.40;99.90;;;;;;5041891;28;20225;-47
2021/04/25 06:35:25;;;;;;;3.23;1.87;;;4.50;99.90;;;;;;5035523;28;20292;-50
2021/04/25 06:37:52;;;;;;;4.83;2.13;;;4.70;99.90;;;;;;5032135;28;20198;-49
2021/04/25 06:40:18;;;;;;;4.60;2.23;;;4.90;99.90;;;;;;5041445;28;20201;-50
2021/04/25 06:42:45;;;;;;;3.60;1.70;;;5.10;99.90;;;;;;5018022;28;20388;-48
2021/04/25 06:45:13;;;;;;;3.17;1.80;;;5.20;99.90;;;;;;5050434;28;20194;-47
2021/04/25 06:47:40;;;;;;;3.77;1.77;;;5.20;99.90;;;;;;5055443;28;20303;-51
2021/04/25 06:50:11;;;;;;;2.37;1.73;;;5.30;99.90;;;;;;5062577;28;20201;-47
2021/04/25 06:52:37;;;;;;;4.00;1.30;;;5.40;99.90;;;;;;5031870;28;21012;-52
2021/04/25 06:55:04;;;;;;;2.57;1.60;;;5.60;99.90;;;;;;5049992;28;20194;-52
2021/04/25 06:57:30;;;;;;;2.23;1.30;;;5.70;99.90;;;;;;5032396;28;20199;-50
2021/04/25 06:59:56;;;;;;;3.20;1.20;;;5.60;99.90;;;;;;5039827;28;20203;-48
2021/04/25 07:02:23;;;;;;;1.70;1.10;;;5.70;99.90;;;;;;5040823;28;20213;-51
2021/04/25 07:04:50;;;;;;;3.57;1.10;;;5.90;99.90;;;;;;5040288;28;20321;-50
2021/04/25 07:07:16;;;;;;;4.07;1.00;;;6.00;99.90;;;;;;5036720;28;20199;-51
2021/04/25 07:09:43;;;;;;;1.87;1.27;;;6.10;99.90;;;;;;5049902;28;20206;-47
2021/04/25 07:12:09;;;;;;;1.67;0.90;;;6.20;99.90;;;;;;5052334;28;20218;-49
2021/04/25 07:14:35;;;;;;;3.23;1.37;;;6.30;99.90;;;;;;5028495;28;20272;-53
2021/04/25 07:17:01;;;;;;;2.33;1.20;;;6.40;99.90;;;;;;5018074;28;20912;-52
2021/04/25 07:19:28;;;;;;;2.13;1.10;;;6.40;99.90;;;;;;5022860;28;20203;-55
2021/04/25 07:21:55;;;;;;;1.00;0.90;;;6.50;99.90;;;;;;5032691;28;20218;-59
2021/04/25 07:24:21;;;;;;;3.67;1.10;;;6.60;99.90;;;;;;5056968;28;20679;-54
2021/04/25 07:26:47;;;;;;;0.77;0.77;;;6.60;99.90;;;;;;5064815;28;20202;-54
2021/04/25 07:29:14;;;;;;;4.10;1.00;;;6.70;99.90;;;;;;5045719;28;20401;-53
2021/04/25 07:31:41;;;;;;;3.40;1.10;;;6.80;99.90;;;;;;5046990;28;20309;-52
2021/04/25 07:34:07;;;;;;;1.20;0.70;;;6.90;99.90;;;;;;5042985;28;20223;-57
2021/04/25 07:36:33;;;;;;;2.00;0.70;;;7.10;99.90;;;;;;5041245;28;20207;-55
2021/04/25 07:39:00;;;;;;;0.70;0.60;;;7.20;99.90;;;;;;5029076;28;20214;-55
2021/04/25 07:41:26;;;;;;;0.60;0.43;;;7.40;99.90;;;;;;5042378;28;20219;-54
2021/04/25 07:43:52;;;;;;;1.00;0.70;;;7.50;99.90;;;;;;5040595;28;20318;-59
2021/04/25 07:46:19;;;;;;;1.70;0.70;;;7.60;99.90;;;;;;5048919;28;20202;-48
2021/04/25 07:48:45;;;;;;;1.60;0.57;;;7.60;99.90;;;;;;5046267;28;20195;-54
2021/04/25 07:51:11;;;;;;;1.27;0.90;;;7.80;99.90;;;;;;5047231;28;20210;-51
2021/04/25 07:53:39;;;;;;;2.47;0.50;;;7.90;99.90;;;;;;5042213;28;20229;-49
2021/04/25 07:56:06;;;;;;;0.60;0.60;;;8.00;99.70;;;;;;5045094;28;20199;-52
2021/04/25 07:58:33;;;;;;;1.20;0.60;;;8.10;99.70;;;;;;5037933;28;20212;-47
2021/04/25 08:00:59;;;;;;;1.97;0.50;;;8.10;98.70;;;;;;5038527;28;20317;-50
2021/04/25 08:03:25;;;;;;;1.03;0.47;;;8.10;98.30;;;;;;5047215;28;20222;-51
2021/04/25 08:05:51;;;;;;;5.10;0.60;;;8.20;97.10;;;;;;5051334;28;20200;-54
2021/04/25 08:08:18;;;;;;;0.83;0.70;;;8.30;96.60;;;;;;5033895;28;20207;-53
2021/04/25 08:10:45;;;;;;;1.80;0.70;;;8.40;96.30;;;;;;5053756;28;20279;-55
2021/04/25 08:13:12;;;;;;;2.07;0.90;;;8.50;95.70;;;;;;5038492;28;20829;-50
2021/04/25 08:15:38;;;;;;;2.43;0.43;;;8.50;95.70;;;;;;5040577;28;20210;-51
2021/04/25 08:18:05;;;;;;;1.00;0.50;;;8.60;94.70;;;;;;5041458;28;20205;-50
2021/04/25 08:20:31;;;;;;;2.23;0.70;;;8.50;92.00;;;;;;5041412;28;20222;-51
2021/04/25 08:22:57;;;;;;;1.83;0.40;;;8.30;91.80;;;;;;5031329;28;20195;-53
2021/04/25 08:25:23;;;;;;;1.90;0.40;;;8.20;88.30;;;;;;5052948;28;20211;-52
2021/04/25 08:27:50;;;;;;;1.97;0.30;;;8.20;87.70;;;;;;5049364;28;20219;-57
2021/04/25 08:30:18;;;;;;;1.00;0.90;;;8.20;85.60;;;;;;5038570;28;20229;-53
2021/04/25 08:32:44;;;;;;;0.50;0.40;;;8.40;84.30;;;;;;5039155;28;20648;-54
2021/04/25 08:35:11;;;;;;;2.13;0.67;;;8.60;82.60;;;;;;5039106;28;20210;-50
2021/04/25 08:37:37;;;;;;;0.40;0.30;;;8.90;79.90;;;;;;5028909;28;20199;-50
2021/04/25 08:40:04;;;;;;;2.53;0.53;;;8.90;75.10;;;;;;5038582;28;20542;-48
2021/04/25 08:42:30;;;;;;;2.80;0.30;;;8.90;75.20;;;;;;5031422;28;20601;-53
2021/04/25 08:44:57;;;;;;;1.80;0.70;;;8.90;71.60;;;;;;5037298;28;20203;-53
2021/04/25 08:47:27;;;;;;;1.30;0.50;;;8.80;72.70;;;;;;5035695;28;20200;-54
2021/04/25 08:49:56;;;;;;;1.93;0.43;;;8.70;71.90;;;;;;5036135;28;20389;-49
2021/04/25 08:52:23;;;;;;;0.60;0.30;;;8.70;71.20;;;;;;5039168;28;20223;-55
2021/04/25 08:54:50;;;;;;;0.50;0.50;;;8.80;70.80;;;;;;5026695;28;20372;-51
2021/04/25 08:57:16;;;;;;;1.53;0.57;;;8.80;68.90;;;;;;5044675;28;20195;-51
2021/04/25 08:59:42;;;;;;;0.40;0.40;;;8.80;67.40;;;;;;5036638;28;20500;-49
2021/04/25 09:02:08;;;;;;;1.63;0.40;;;8.80;67.40;;;;;;5039790;28;20215;-49
2021/04/25 09:04:35;;;;;;;3.67;0.30;;;8.90;65.80;;;;;;5040573;28;20645;-54
2021/04/25 09:07:04;;;;;;;2.00;0.20;;;9.20;65.50;;;;;;5040233;28;20215;-48
2021/04/25 09:09:46;;;;;;;0.50;0.50;;;9.60;62.20;;;;;;5031560;28;20570;-52
2021/04/25 09:12:30;;;;;;;0.63;0.33;;;9.70;56.50;;;;;;5047938;28;20219;-49
2021/04/25 09:14:56;;;;;;;2.00;0.30;;;9.60;60.20;;;;;;5039614;28;20559;-47
2021/04/25 09:17:22;;;;;;;1.27;0.60;;;10.10;59.80;;;;;;5026716;28;20207;-51
2021/04/25 09:19:55;;;;;;;1.20;0.40;;;10.30;58.10;;;;;;5057494;28;20249;-50
2021/04/25 09:22:23;;;;;;;3.60;0.50;;;10.20;55.30;;;;;;5034740;28;20427;-50
2021/04/25 09:24:49;;;;;;;1.43;0.33;;;10.00;55.70;;;;;;5041537;28;20196;-51
2021/04/25 09:27:27;;;;;;;0.73;0.40;;;9.80;56.60;;;;;;5024471;28;20204;-53
2021/04/25 09:29:54;;;;;;;0.90;0.47;;;9.60;54.70;;;;;;5038908;28;20206;-47
2021/04/25 09:32:22;;;;;;;0.70;0.30;;;9.40;55.30;;;;;;5027573;28;20276;-53
2021/04/25 09:34:48;;;;;;;0.50;0.50;;;9.40;55.50;;;;;;5025599;28;20206;-48
2021/04/25 09:37:20;;;;;;;2.13;0.50;;;9.40;55.10;;;;;;5026515;28;20261;-51
2021/04/25 09:40:02;;;;;;;2.30;0.70;;;9.30;53.80;;;;;;5036771;28;20211;-48
2021/04/25 09:42:29;;;;;;;0.50;0.40;;;9.10;54.00;;;;;;5036959;28;20272;-49
2021/04/25 09:44:55;;;;;;;0.60;0.37;;;9.00;54.20;;;;;;5057269;28;20822;-53
2021/04/25 09:47:30;;;;;;;0.77;0.40;;;8.90;53.10;;;;;;5035995;28;20202;-49
2021/04/25 09:49:56;;;;;;;0.60;0.40;;;9.00;51.70;;;;;;5032970;28;20199;-53
2021/04/25 09:52:37;;;;;;;0.47;0.47;;;9.30;53.50;;;;;;5035865;28;20215;-53
2021/04/25 09:55:15;;;;;;;0.50;0.23;;;9.50;52.50;;;;;;5043441;28;20210;-54
2021/04/25 09:57:41;;;;;;;0.97;0.30;;;9.50;52.80;;;;;;5047920;28;20574;-51
2021/04/25 10:00:08;;;;;;;0.70;0.50;;;9.50;52.70;;;;;;5052395;28;20616;-56
2021/04/25 10:02:54;;;;;;;0.30;0.23;;;9.20;52.30;;;;;;5032771;28;20330;-55
2021/04/25 10:05:21;;;;;;;1.33;0.40;;;9.10;53.30;;;;;;5035070;28;21424;-54
2021/04/25 10:07:48;;;;;;;0.30;0.30;;;9.20;53.90;;;;;;5036607;28;20203;-51
2021/04/25 10:10:15;;;;;;;0.40;0.40;;;9.10;53.60;;;;;;5039923;28;20199;-57
2021/04/25 10:12:42;;;;;;;1.77;0.37;;;9.20;54.70;;;;;;5035418;28;20242;-52
2021/04/25 10:15:09;;;;;;;0.23;0.20;;;9.40;53.90;;;;;;5042901;28;20218;-56
2021/04/25 10:17:36;;;;;;;0.80;0.60;;;9.80;52.80;;;;;;5041579;28;20199;-51
2021/04/25 10:20:03;;;;;;;0.57;0.40;;;10.00;50.40;;;;;;5041938;28;20214;-54
2021/04/25 10:22:30;;;;;;;1.23;0.40;;;10.10;51.20;;;;;;5042869;28;20219;-52
2021/04/25 10:24:57;;;;;;;1.10;0.30;;;10.40;50.10;;;;;;5038902;28;20232;-54
2021/04/25 10:27:26;;;;;;;1.17;0.50;;;10.40;49.30;;;;;;5049626;28;20203;-48
2021/04/25 10:29:55;;;;;;;1.27;0.60;;;10.40;50.40;;;;;;5021616;28;20214;-51
2021/04/25 10:32:22;;;;;;;0.87;0.40;;;10.40;49.10;;;;;;5046457;28;20214;-49
2021/04/25 10:34:51;;;;;;;1.53;0.50;;;10.10;49.00;;;;;;5048869;28;20224;-56
2021/04/25 10:37:18;;;;;;;1.53;0.40;;;10.10;49.50;;;;;;5046108;28;20195;-56
2021/04/25 10:39:47;;;;;;;0.80;0.50;;;9.90;49.40;;;;;;5041831;28;20215;-57
2021/04/25 10:42:29;;;;;;;2.10;0.20;;;9.70;49.10;;;;;;5058856;28;20213;-54
2021/04/25 10:45:28;;;;;;;1.13;0.30;;;9.80;49.00;;;;;;5031225;28;20432;-56
2021/04/25 10:48:21;;;;;;;1.80;0.40;;;9.90;49.50;;;;;;5048476;28;20209;-58
2021/04/25 10:50:50;;;;;;;0.70;0.27;;;10.10;48.00;;;;;;5040869;28;20223;-57
2021/04/25 10:53:28;;;;;;;0.50;0.30;;;10.00;47.00;;;;;;5046469;28;20214;-58
2021/04/25 10:56:31;;;;;;;1.23;0.30;;;10.10;46.90;;;;;;5048633;28;20202;-57
2021/04/25 10:59:31;;;;;;;0.47;0.20;;;10.30;46.90;;;;;;5027776;28;20204;-54
2021/04/25 11:01:59;;;;;;;0.40;0.40;;;10.40;44.60;;;;;;5042503;28;20297;-56
2021/04/25 11:05:07;;;;;;;0.20;0.20;;;10.30;46.00;;;;;;5038037;28;20580;-59
2021/04/25 11:07:39;;;;;;;0.10;0.10;;;10.20;44.90;;;;;;5029506;28;20199;-57
2021/04/25 11:10:06;;;;;;;0.70;0.27;;;10.40;46.20;;;;;;5039631;28;20592;-57
2021/04/25 11:12:36;;;;;;;1.53;0.30;;;10.50;45.80;;;;;;5040233;28;20250;-58
2021/04/25 11:15:05;;;;;;;2.67;0.23;;;10.50;46.80;;;;;;5033795;28;20230;-57
2021/04/25 11:17:31;;;;;;;0.87;0.20;;;10.60;46.10;;;;;;5040971;28;20206;-57
2021/04/25 11:19:58;;;;;;;4.20;0.87;;;10.80;45.20;;;;;;5041253;28;20186;-56
2021/04/25 11:22:45;;;;;;;0.40;0.23;;;10.70;44.50;;;;;;5035345;28;20223;-58
2021/04/25 11:25:29;;;;;;;0.87;0.20;;;10.50;45.90;;;;;;5041938;28;20202;-56
2021/04/25 11:27:55;;;;;;;0.20;0.10;;;10.50;46.20;;;;;;5039626;28;20674;-56
2021/04/25 11:30:36;;;;;;;0.30;0.27;;;10.60;46.30;;;;;;5042487;28;20229;-52
2021/04/25 11:33:31;;;;;;;1.00;0.20;;;10.60;45.60;;;;;;5046506;28;20229;-55
2021/04/25 11:36:36;;;;;;;0.30;0.23;;;10.80;47.20;;;;;;5057825;28;20237;-56
2021/04/25 11:39:03;;;;;;;1.17;0.10;;;10.90;45.40;;;;;;5046227;28;20281;-57
2021/04/25 11:41:30;;;;;;;0.30;0.30;;;10.60;44.90;;;;;;5035731;28;20312;-56
2021/04/25 11:43:57;;;;;;;1.20;0.20;;;10.40;44.90;;;;;;5053498;28;20194;-51
2021/04/25 11:46:35;;;;;;;0.27;0.27;;;10.30;45.00;;;;;;5037682;28;20233;-51
2021/04/25 11:49:02;;;;;;;0.50;0.40;;;10.30;44.40;;;;;;5045266;28;20256;-51
2021/04/25 11:51:29;;;;;;;0.20;0.20;;;10.40;44.70;;;;;;5054606;28;20210;-56
2021/04/25 11:53:56;;;;;;;0.13;0.10;;;10.60;43.80;;;;;;5037044;28;20222;-51
2021/04/25 11:56:24;;;;;;;0.40;0.30;;;10.70;43.90;;;;;;5051914;28;20278;-52
2021/04/25 11:58:50;;;;;;;1.50;0.30;;;10.70;43.90;;;;;;5051924;28;20209;-54
2021/04/25 12:01:23;;;;;;;0.93;0.20;;;10.90;44.30;;;;;;5035753;28;20230;-55
2021/04/25 12:03:50;;;;;;;0.57;0.30;;;11.10;43.70;;;;;;5044160;28;20225;-53
2021/04/25 12:06:17;;;;;;;1.50;0.37;;;11.40;44.10;;;;;;5054735;28;20195;-56
2021/04/25 12:08:51;;;;;;;0.80;0.17;;;11.40;43.50;;;;;;5039316;28;20748;-51
2021/04/25 12:11:22;;;;;;;0.23;0.23;;;11.40;42.80;;;;;;5037643;28;20218;-53
2021/04/25 12:13:48;;;;;;;0.10;0.10;;;11.50;43.10;;;;;;5040592;28;20218;-51
2021/04/25 12:16:19;;;;;;;0.10;0.10;;;11.40;41.90;;;;;;5047166;28;20199;-56
2021/04/25 12:18:45;;;;;;;1.00;0.30;;;11.30;40.20;;;;;;5055788;28;20758;-53
2021/04/25 12:21:17;;;;;;;1.70;0.30;;;11.10;40.40;;;;;;5067457;28;20221;-54
2021/04/25 12:23:45;;;;;;;0.17;0.10;;;11.00;40.50;;;;;;5064590;28;20413;-52
2021/04/25 12:26:13;;;;;;;0.30;0.30;;;11.00;41.10;;;;;;5047114;28;20211;-55
2021/04/25 12:28:42;;;;;;;1.60;0.20;;;11.10;41.50;;;;;;5036607;28;20414;-54
2021/04/25 12:31:08;;;;;;;1.17;0.20;;;11.30;41.10;;;;;;5047256;28;20222;-53
2021/04/25 12:33:40;;;;;;;0.67;0.27;;;11.30;41.00;;;;;;5040083;28;20218;-55
2021/04/25 12:36:08;;;;;;;0.63;0.30;;;11.50;40.50;;;;;;5025476;28;20200;-51
2021/04/25 12:38:37;;;;;;;0.37;0.20;;;11.60;40.20;;;;;;5051200;28;20944;-53
2021/04/25 12:41:06;;;;;;;0.23;0.17;;;11.60;40.20;;;;;;5047371;28;20731;-55
2021/04/25 12:43:37;;;;;;;3.53;0.20;;;11.60;38.90;;;;;;5036269;28;20544;-51
2021/04/25 12:46:14;;;;;;;0.20;0.10;;;11.40;39.40;;;;;;5046976;28;20569;-52
2021/04/25 12:48:42;;;;;;;0.30;0.20;;;11.60;41.00;;;;;;5042465;28;20416;-50
2021/04/25 12:51:20;;;;;;;0.20;0.20;;;11.90;40.60;;;;;;5067777;28;20215;-49
2021/04/25 12:54:04;;;;;;;0.10;0.10;;;11.90;39.30;;;;;;5065097;28;20354;-51
2021/04/25 12:56:35;;;;;;;0.13;0.13;;;11.70;39.10;;;;;;5047678;28;20237;-54
2021/04/25 12:59:14;;;;;;;0.20;0.10;;;11.70;39.50;;;;;;5035855;28;20196;-48
2021/04/25 13:01:43;;;;;;;0.27;0.20;;;11.80;40.50;;;;;;5041882;28;24021;-51